Airfield :
LOGIN :

Register | Disclaimer

   EN    FR    IT 

 










Legend :    VFR   Marginal VFR   IFR   Intensive IFR   Very Intensive IFR
Visi :
Ceiling :
>= 8 km
>= 3000ft
5 to 8 km
1000 to 3000 ft
1500m to 5 km
500 to 1000 ft
800 to 1500m
200 to 500 ft
< 800m
< 200 ft
Symbols :   Thunderstorms  Fog  Heavy snow  Heavy precipitations  Wind > 20 kt
SIGMETs :     Misc.  Thunderstorms  Icing  Turbulence  Mountain Waves  Volcanic Ashes






- Airport Elevation : 22 ft
- IATA code : LDY


EGAE - Londonderry Eglington

CURRENT METAR :
  • 221220Z 04009KT 9999 -RADZ FEW016 SCT019 BKN044 07/05 Q0994

EXPIRED METARs :
  • 221150Z 06009KT 9999 FEW017 SCT020 BKN042 07/05 Q0994
  • 221120Z 07006KT 9999 FEW021 BKN036 07/05 Q0994
  • 221050Z 07007KT 9999 FEW017 BKN023 07/05 Q0994
  • 221020Z 04007KT 9999 FEW017 BKN025 07/05 Q0994
  • 220950Z 05008KT 9999 VCSH FEW015 BKN023 07/05 Q0994

TAF TAF EGAE
Valid from the 22 at 12:00 until the 22 at 21:00 UTC


221102Z 2212/2221 08009KT 9999 FEW012 BKN020
TEMPO 2212/2218 6000 RA -RADZ BKN012
TEMPO 2218/2221 4000 +SHRA BKN014CB



MET'MAP, your aeronautical weather chart ! - Copyright ORBIFLY December 2007 - Disclaimer

ORBIFLY MET'MAP TEAM :

Programming & Development : Alexandra Zaïnal
Concept & Development : Baudouin d'Aumeries
Co-Development & Prog : Marc-Olivier Méhu
Technical & hardware support : Manuel Goepfert

Contact : metmap@orbifly.com




SOURCES & CREDITS :

   NOAA